createdAt,value
2022-11-16T00:01:19.103Z,100.00
2022-11-16T00:03:46.152Z,100.00
2022-11-16T00:06:14.569Z,100.00
2022-11-16T00:09:06.388Z,100.00
2022-11-16T00:11:33.724Z,100.00
2022-11-16T00:14:00.393Z,100.00
2022-11-16T00:16:27.022Z,100.00
2022-11-16T00:18:58.227Z,100.00
2022-11-16T00:21:27.342Z,100.00
2022-11-16T00:24:00.130Z,100.00
2022-11-16T00:26:26.917Z,100.00
2022-11-16T00:28:54.712Z,100.00
2022-11-16T00:31:22.140Z,100.00
2022-11-16T00:33:49.547Z,100.00
2022-11-16T00:36:16.494Z,100.00
2022-11-16T00:38:43.439Z,100.00
2022-11-16T00:41:10.336Z,100.00
2022-11-16T00:43:37.303Z,100.00
2022-11-16T00:46:04.981Z,100.00
2022-11-16T00:48:31.875Z,100.00
2022-11-16T00:50:58.613Z,100.00
2022-11-16T00:53:25.129Z,100.00
2022-11-16T00:55:51.702Z,100.00
2022-11-16T00:58:18.288Z,100.00
2022-11-16T01:00:44.995Z,100.00
2022-11-16T01:03:11.604Z,100.00
2022-11-16T01:05:38.377Z,100.00
2022-11-16T01:08:05.119Z,100.00
2022-11-16T01:10:31.551Z,100.00
2022-11-16T01:12:58.782Z,100.00
2022-11-16T01:15:27.578Z,100.00
2022-11-16T01:17:55.989Z,100.00
2022-11-16T01:20:25.704Z,100.00
2022-11-16T01:22:52.699Z,100.00
2022-11-16T01:25:19.589Z,100.00
2022-11-16T01:27:46.158Z,100.00
2022-11-16T01:30:14.709Z,100.00
2022-11-16T01:32:41.254Z,100.00
2022-11-16T01:35:08.596Z,100.00
2022-11-16T01:37:35.195Z,100.00
2022-11-16T01:40:01.699Z,100.00
2022-11-16T01:42:30.274Z,100.00
2022-11-16T01:45:23.127Z,100.00
2022-11-16T01:47:50.495Z,100.00
2022-11-16T01:50:18.401Z,100.00
2022-11-16T01:52:52.513Z,100.00
2022-11-16T01:55:19.742Z,100.00
2022-11-16T01:57:47.660Z,100.00
2022-11-16T02:00:15.024Z,100.00
2022-11-16T02:02:42.082Z,100.00
2022-11-16T02:05:11.602Z,100.00
2022-11-16T02:08:32.857Z,100.00
2022-11-16T02:11:05.420Z,100.00
2022-11-16T02:13:35.836Z,100.00
2022-11-16T02:16:28.338Z,100.00
2022-11-16T02:19:00.509Z,100.00
2022-11-16T02:21:41.105Z,100.00
2022-11-16T02:24:19.634Z,100.00
2022-11-16T02:26:52.088Z,100.00
2022-11-16T02:29:24.507Z,100.00
2022-11-16T02:32:15.384Z,100.00
2022-11-16T02:34:57.434Z,100.00
2022-11-16T02:37:28.327Z,100.00
2022-11-16T02:39:58.177Z,100.00
2022-11-16T02:42:41.556Z,100.00
2022-11-16T02:45:12.270Z,100.00
2022-11-16T02:47:41.652Z,100.00
2022-11-16T02:50:16.552Z,100.00
2022-11-16T02:52:42.968Z,100.00
2022-11-16T02:55:09.643Z,100.00
2022-11-16T02:57:42.420Z,100.00
2022-11-16T03:00:15.677Z,100.00
2022-11-16T03:02:59.468Z,100.00
2022-11-16T03:05:39.506Z,100.00
2022-11-16T03:08:20.935Z,100.00
2022-11-16T03:11:11.739Z,100.00
2022-11-16T03:13:40.336Z,100.00
2022-11-16T03:16:26.235Z,100.00
2022-11-16T03:18:58.329Z,100.00
2022-11-16T03:21:39.479Z,100.00
2022-11-16T03:24:07.520Z,100.00
2022-11-16T03:27:08.868Z,100.00
2022-11-16T03:30:02.744Z,100.00
2022-11-16T03:33:09.836Z,100.00
2022-11-16T03:35:46.382Z,100.00
2022-11-16T03:38:15.557Z,100.00
2022-11-16T03:40:45.686Z,100.00
2022-11-16T03:43:12.887Z,100.00
2022-11-16T03:45:39.574Z,100.00
2022-11-16T03:48:07.287Z,100.00
2022-11-16T03:50:34.039Z,100.00
2022-11-16T03:53:00.496Z,100.00
2022-11-16T03:55:26.928Z,100.00
2022-11-16T03:57:53.450Z,100.00
2022-11-16T04:00:20.032Z,100.00
2022-11-16T04:02:46.532Z,100.00
2022-11-16T04:05:31.708Z,100.00
2022-11-16T04:08:16.458Z,100.00
2022-11-16T04:11:02.227Z,100.00
2022-11-16T04:13:50.829Z,100.00
2022-11-16T04:16:35.817Z,100.00
2022-11-16T04:19:20.655Z,100.00
2022-11-16T04:22:16.122Z,100.00
2022-11-16T04:24:47.559Z,100.00
2022-11-16T04:27:34.283Z,100.00
2022-11-16T04:30:02.771Z,100.00
2022-11-16T04:32:48.446Z,100.00
2022-11-16T04:35:33.794Z,100.00
2022-11-16T04:38:00.337Z,100.00
2022-11-16T04:40:30.633Z,100.00
2022-11-16T04:42:59.268Z,100.00
2022-11-16T04:45:46.277Z,100.00
2022-11-16T04:48:14.553Z,100.00
2022-11-16T04:50:41.257Z,100.00
2022-11-16T04:53:08.456Z,100.00
2022-11-16T04:55:35.460Z,100.00
2022-11-16T04:58:02.419Z,100.00
2022-11-16T05:00:29.541Z,100.00
2022-11-16T05:03:01.047Z,100.00
2022-11-16T05:05:28.302Z,100.00
2022-11-16T05:07:54.812Z,100.00
2022-11-16T05:10:21.274Z,100.00
2022-11-16T05:12:47.758Z,100.00
2022-11-16T05:15:14.735Z,100.00
2022-11-16T05:17:41.357Z,100.00
2022-11-16T05:20:29.714Z,100.00
2022-11-16T05:22:57.706Z,100.00
2022-11-16T05:25:25.556Z,100.00
2022-11-16T05:27:54.563Z,100.00
2022-11-16T05:30:22.088Z,100.00
2022-11-16T05:32:48.594Z,100.00
2022-11-16T05:35:15.144Z,100.00
2022-11-16T05:37:42.424Z,100.00
2022-11-16T05:40:09.500Z,100.00
2022-11-16T05:42:36.080Z,100.00
2022-11-16T05:45:05.547Z,100.00
2022-11-16T05:47:33.352Z,100.00
2022-11-16T05:49:59.763Z,100.00
2022-11-16T05:52:26.146Z,100.00
2022-11-16T05:54:52.589Z,100.00
2022-11-16T05:57:19.099Z,100.00
2022-11-16T05:59:45.808Z,100.00
2022-11-16T06:02:14.576Z,100.00
2022-11-16T06:04:40.991Z,100.00
2022-11-16T06:07:07.522Z,100.00
2022-11-16T06:09:34.007Z,100.00
2022-11-16T06:12:00.479Z,100.00
2022-11-16T06:14:27.028Z,100.00
2022-11-16T06:16:53.527Z,100.00
2022-11-16T06:19:20.007Z,100.00
2022-11-16T06:21:46.495Z,100.00
2022-11-16T06:24:13.032Z,100.00
2022-11-16T06:26:39.812Z,100.00
2022-11-16T06:29:06.285Z,100.00
2022-11-16T06:31:32.960Z,100.00
2022-11-16T06:33:59.523Z,100.00
2022-11-16T06:36:26.058Z,100.00
2022-11-16T06:38:52.606Z,100.00
2022-11-16T06:41:19.334Z,100.00
2022-11-16T06:43:46.095Z,100.00
2022-11-16T06:46:12.632Z,100.00
2022-11-16T06:48:39.261Z,100.00
2022-11-16T06:51:06.091Z,100.00
2022-11-16T06:53:32.775Z,100.00
2022-11-16T06:56:04.808Z,100.00
2022-11-16T06:58:42.617Z,100.00
2022-11-16T07:01:11.450Z,100.00
2022-11-16T07:03:38.385Z,100.00
2022-11-16T07:06:07.085Z,100.00
2022-11-16T07:08:33.898Z,100.00
2022-11-16T07:11:06.123Z,100.00
2022-11-16T07:13:34.381Z,100.00
2022-11-16T07:16:02.643Z,100.00
2022-11-16T07:18:34.196Z,100.00
2022-11-16T07:21:07.144Z,100.00
2022-11-16T07:23:33.752Z,100.00
2022-11-16T07:26:02.927Z,100.00
2022-11-16T07:28:29.838Z,100.00
2022-11-16T07:31:08.117Z,100.00
2022-11-16T07:33:37.211Z,100.00
2022-11-16T07:36:07.198Z,100.00
2022-11-16T07:38:34.569Z,100.00
2022-11-16T07:41:03.614Z,100.00
2022-11-16T07:43:35.216Z,100.00
2022-11-16T07:46:44.665Z,100.00
2022-11-16T07:48:53.073Z,100.00
2022-11-16T07:51:20.185Z,100.00
2022-11-16T07:53:46.632Z,100.00
2022-11-16T07:56:13.519Z,100.00
2022-11-16T07:58:40.516Z,100.00
2022-11-16T08:01:11.207Z,100.00
2022-11-16T08:03:39.411Z,100.00
2022-11-16T08:06:11.246Z,100.00
2022-11-16T08:08:37.873Z,100.00
2022-11-16T08:11:06.914Z,100.00
2022-11-16T08:13:35.132Z,100.00
2022-11-16T08:16:03.068Z,100.00
2022-11-16T08:18:30.816Z,100.00
2022-11-16T08:21:01.860Z,100.00
2022-11-16T08:23:29.551Z,100.00
2022-11-16T08:26:00.178Z,100.00
2022-11-16T08:28:27.836Z,100.00
2022-11-16T08:30:55.619Z,100.00
2022-11-16T08:33:23.575Z,100.00
2022-11-16T08:35:51.464Z,100.00
2022-11-16T08:38:18.583Z,100.00
2022-11-16T08:40:45.567Z,100.00
2022-11-16T08:43:12.378Z,100.00
2022-11-16T08:45:39.077Z,100.00
2022-11-16T08:48:05.886Z,100.00
2022-11-16T08:50:44.260Z,100.00
2022-11-16T08:53:15.854Z,100.00
2022-11-16T08:55:43.107Z,100.00
2022-11-16T08:58:11.213Z,100.00
2022-11-16T09:00:38.212Z,100.00
2022-11-16T09:03:04.640Z,100.00
2022-11-16T09:05:31.169Z,100.00
2022-11-16T09:07:57.624Z,100.00
2022-11-16T09:10:25.922Z,100.00
2022-11-16T09:12:52.659Z,100.00
2022-11-16T09:15:19.422Z,100.00
2022-11-16T09:17:46.062Z,100.00
2022-11-16T09:20:12.449Z,100.00
2022-11-16T09:22:38.888Z,100.00
2022-11-16T09:25:05.880Z,100.00
2022-11-16T09:27:32.479Z,100.00
2022-11-16T09:29:58.973Z,100.00
2022-11-16T09:32:25.394Z,100.00
2022-11-16T09:34:51.876Z,100.00
2022-11-16T09:37:20.611Z,99.61
2022-11-16T09:39:47.243Z,99.63
2022-11-16T09:42:30.568Z,98.51
2022-11-16T09:45:15.299Z,98.90
2022-11-16T09:48:05.592Z,97.81
2022-11-16T09:50:44.691Z,98.37
2022-11-16T09:53:28.446Z,97.73
2022-11-16T09:56:07.500Z,97.71
2022-11-16T09:58:43.620Z,97.66
2022-11-16T10:01:27.583Z,97.36
2022-11-16T10:04:03.178Z,96.39
2022-11-16T10:06:37.740Z,96.85
2022-11-16T10:09:04.982Z,95.97
2022-11-16T10:11:55.711Z,96.32
2022-11-16T10:14:39.092Z,95.49
2022-11-16T10:17:23.452Z,94.99
2022-11-16T10:20:45.109Z,95.29
2022-11-16T10:23:46.082Z,95.37
2022-11-16T10:26:18.563Z,93.73
2022-11-16T10:29:10.478Z,93.23
2022-11-16T10:32:02.197Z,93.75
2022-11-16T10:34:42.661Z,93.04
2022-11-16T10:37:18.439Z,92.16
2022-11-16T10:39:53.829Z,93.16
2022-11-16T10:42:32.805Z,92.62
2022-11-16T10:45:10.811Z,92.47
2022-11-16T10:47:52.335Z,92.32
2022-11-16T10:50:38.405Z,90.43
2022-11-16T10:53:05.163Z,91.28
2022-11-16T10:55:49.812Z,91.07
2022-11-16T10:58:16.618Z,90.79
2022-11-16T11:00:51.700Z,90.92
2022-11-16T11:03:32.744Z,90.26
2022-11-16T11:05:59.984Z,89.47
2022-11-16T11:08:30.738Z,89.00
2022-11-16T11:11:24.220Z,89.39
2022-11-16T11:14:10.235Z,88.55
2022-11-16T11:16:37.958Z,88.60
2022-11-16T11:19:28.787Z,88.38
2022-11-16T11:21:58.245Z,88.48
2022-11-16T11:27:13.668Z,89.33
2022-11-16T11:29:43.006Z,88.93
2022-11-16T11:32:23.773Z,89.18
2022-11-16T11:34:53.769Z,88.19
2022-11-16T11:37:25.197Z,88.26
2022-11-16T11:40:19.592Z,88.38
2022-11-16T11:43:00.926Z,88.27
2022-11-16T11:45:34.430Z,87.39
2022-11-16T11:48:05.836Z,86.74
2022-11-16T11:50:51.007Z,86.80
2022-11-16T11:53:39.545Z,86.88
2022-11-16T11:56:06.696Z,86.16
2022-11-16T11:58:39.911Z,86.41
2022-11-16T12:01:31.046Z,86.88
2022-11-16T12:04:36.949Z,87.95
2022-11-16T12:07:09.310Z,87.95
2022-11-16T12:09:45.334Z,87.79
2022-11-16T12:12:27.709Z,87.87
2022-11-16T12:15:25.521Z,87.45
2022-11-16T12:18:18.511Z,87.76
2022-11-16T12:21:03.180Z,87.81
2022-11-16T12:23:39.633Z,87.97
2022-11-16T12:26:35.197Z,86.99
2022-11-16T12:29:08.119Z,88.02
2022-11-16T12:31:40.746Z,87.70
2022-11-16T12:34:46.048Z,88.01
2022-11-16T12:38:02.868Z,87.27
2022-11-16T12:40:50.265Z,85.92
2022-11-16T12:43:39.738Z,85.74
2022-11-16T12:46:10.621Z,84.49
2022-11-16T12:49:00.065Z,84.00
2022-11-16T12:51:41.964Z,82.79
2022-11-16T12:54:31.027Z,82.59
2022-11-16T12:57:00.460Z,82.59
2022-11-16T12:59:33.005Z,83.39
2022-11-16T13:02:25.966Z,83.45
2022-11-16T13:05:12.361Z,83.50
2022-11-16T13:07:44.815Z,83.61
2022-11-16T13:10:21.460Z,82.92
2022-11-16T13:13:09.082Z,82.52
2022-11-16T13:15:42.634Z,82.12
2022-11-16T13:18:15.880Z,82.60
2022-11-16T13:20:50.109Z,82.29
2022-11-16T13:23:32.228Z,81.79
2022-11-16T13:26:30.477Z,81.65
2022-11-16T13:29:22.483Z,82.14
2022-11-16T13:32:13.862Z,82.91
2022-11-16T13:34:42.550Z,82.60
2022-11-16T13:37:33.970Z,82.45
2022-11-16T13:40:00.919Z,82.34
2022-11-16T13:42:30.257Z,83.16
2022-11-16T13:45:17.752Z,83.15
2022-11-16T13:47:56.389Z,83.98
2022-11-16T13:50:33.104Z,82.68
2022-11-16T13:56:04.191Z,83.24
2022-11-16T13:58:32.402Z,83.13
2022-11-16T14:01:04.601Z,84.23
2022-11-16T14:03:38.925Z,82.93
2022-11-16T14:06:26.528Z,83.55
2022-11-16T14:08:54.980Z,84.09
2022-11-16T14:11:27.495Z,84.02
2022-11-16T14:13:54.029Z,83.18
2022-11-16T14:16:21.417Z,83.42
2022-11-16T14:18:56.306Z,82.95
2022-11-16T14:21:26.965Z,83.42
2022-11-16T14:24:12.279Z,83.33
2022-11-16T14:27:16.975Z,84.01
2022-11-16T14:30:27.154Z,84.90
2022-11-16T14:32:59.988Z,84.23
2022-11-16T14:35:29.295Z,84.57
2022-11-16T14:38:06.189Z,84.75
2022-11-16T14:40:56.196Z,85.76
2022-11-16T14:43:34.497Z,86.04
2022-11-16T14:46:06.178Z,85.62
2022-11-16T14:48:33.338Z,85.27
2022-11-16T14:51:06.584Z,85.68
2022-11-16T14:53:36.884Z,85.02
2022-11-16T14:56:14.810Z,85.69
2022-11-16T14:58:51.911Z,86.17
2022-11-16T15:01:20.723Z,86.06
2022-11-16T15:03:56.198Z,86.94
2022-11-16T15:06:25.138Z,86.66
2022-11-16T15:08:55.914Z,86.75
2022-11-16T15:11:49.493Z,87.51
2022-11-16T15:14:29.434Z,87.91
2022-11-16T15:16:57.809Z,88.07
2022-11-16T15:19:25.155Z,88.11
2022-11-16T15:21:52.275Z,89.02
2022-11-16T15:24:30.429Z,88.52
2022-11-16T15:27:09.510Z,89.31
2022-11-16T15:29:36.450Z,89.23
2022-11-16T15:32:03.100Z,89.30
2022-11-16T15:34:31.132Z,89.64
2022-11-16T15:36:57.498Z,90.63
2022-11-16T15:39:30.724Z,90.55
2022-11-16T15:42:03.289Z,90.93
2022-11-16T15:44:30.626Z,90.64
2022-11-16T15:46:57.383Z,90.85
2022-11-16T15:49:33.458Z,90.82
2022-11-16T15:52:00.383Z,91.29
2022-11-16T15:54:29.538Z,91.74
2022-11-16T15:57:05.110Z,91.71
2022-11-16T15:59:34.599Z,92.31
2022-11-16T16:02:01.275Z,91.90
2022-11-16T16:04:28.993Z,92.83
2022-11-16T16:06:57.861Z,93.05
2022-11-16T16:09:31.140Z,92.97
2022-11-16T16:12:16.860Z,92.62
2022-11-16T16:14:44.731Z,93.09
2022-11-16T16:17:21.370Z,93.76
2022-11-16T16:19:56.099Z,93.96
2022-11-16T16:22:30.293Z,93.96
2022-11-16T16:24:57.119Z,94.30
2022-11-16T16:27:26.383Z,94.29
2022-11-16T16:29:55.153Z,94.58
2022-11-16T16:32:33.016Z,93.87
2022-11-16T16:35:05.902Z,94.19
2022-11-16T16:37:36.368Z,93.79
2022-11-16T16:40:03.469Z,94.23
2022-11-16T16:42:30.003Z,94.42
2022-11-16T16:44:59.180Z,94.48
2022-11-16T16:47:26.022Z,93.99
2022-11-16T16:49:52.450Z,94.21
2022-11-16T16:52:19.461Z,93.73
2022-11-16T16:54:45.993Z,94.73
2022-11-16T16:57:17.305Z,94.76
2022-11-16T16:59:45.291Z,93.94
2022-11-16T17:02:16.698Z,94.23
2022-11-16T17:04:48.292Z,94.95
2022-11-16T17:07:16.308Z,94.21
2022-11-16T17:09:43.022Z,94.57
2022-11-16T17:12:10.988Z,94.97
2022-11-16T17:14:37.695Z,95.01
2022-11-16T17:17:04.159Z,95.47
2022-11-16T17:19:30.784Z,94.75
2022-11-16T17:21:57.249Z,94.84
2022-11-16T17:24:23.739Z,94.76
2022-11-16T17:26:50.539Z,95.31
2022-11-16T17:29:17.323Z,95.10
2022-11-16T17:31:46.948Z,94.83
2022-11-16T17:34:14.703Z,95.36
2022-11-16T17:36:42.107Z,95.10
2022-11-16T17:39:08.920Z,95.63
2022-11-16T17:41:35.565Z,94.97
2022-11-16T17:44:02.039Z,95.09
2022-11-16T17:46:29.101Z,95.63
2022-11-16T17:48:56.163Z,95.46
2022-11-16T17:51:25.078Z,96.19
2022-11-16T17:53:52.656Z,95.60
2022-11-16T17:56:28.346Z,95.72
2022-11-16T17:58:56.035Z,95.59
2022-11-16T18:01:22.984Z,95.69
2022-11-16T18:03:50.246Z,96.50
2022-11-16T18:06:23.003Z,96.14
2022-11-16T18:08:49.583Z,96.10
2022-11-16T18:11:18.726Z,96.05
2022-11-16T18:13:45.563Z,95.81
2022-11-16T18:16:14.998Z,95.72
2022-11-16T18:18:45.990Z,95.94
2022-11-16T18:21:20.025Z,95.07
2022-11-16T18:23:47.400Z,94.98
2022-11-16T18:26:16.076Z,94.98
2022-11-16T18:28:45.876Z,95.89
2022-11-16T18:31:18.496Z,95.59
2022-11-16T18:33:45.367Z,94.84
2022-11-16T18:36:13.659Z,94.78
2022-11-16T18:38:40.216Z,94.53
2022-11-16T18:41:13.601Z,94.82
2022-11-16T18:43:51.686Z,95.36
2022-11-16T18:46:24.005Z,94.82
2022-11-16T18:48:50.471Z,94.74
2022-11-16T18:51:18.618Z,94.46
2022-11-16T18:53:45.529Z,94.81
2022-11-16T18:56:14.542Z,94.70
2022-11-16T18:58:51.268Z,94.93
2022-11-16T19:01:19.953Z,95.01
2022-11-16T19:03:46.496Z,95.09
2022-11-16T19:06:14.953Z,94.85
2022-11-16T19:08:42.125Z,94.51
2022-11-16T19:11:11.552Z,94.46
2022-11-16T19:13:39.630Z,94.60
2022-11-16T19:16:07.490Z,94.66
2022-11-16T19:18:35.433Z,94.96
2022-11-16T19:21:13.455Z,94.98
2022-11-16T19:23:45.090Z,94.98
2022-11-16T19:26:13.651Z,94.87
2022-11-16T19:28:42.289Z,94.44
2022-11-16T19:31:24.193Z,94.89
2022-11-16T19:33:55.486Z,94.46
2022-11-16T19:36:22.987Z,94.39
2022-11-16T19:38:50.128Z,94.16
2022-11-16T19:41:17.982Z,94.86
2022-11-16T19:43:44.881Z,94.23
2022-11-16T19:46:16.563Z,94.00
2022-11-16T19:48:44.831Z,94.28
2022-11-16T19:51:13.754Z,93.87
2022-11-16T19:53:40.770Z,94.69
2022-11-16T19:56:10.594Z,93.96
2022-11-16T19:58:38.559Z,94.30
2022-11-16T20:01:19.531Z,94.67
2022-11-16T20:03:48.269Z,94.87
2022-11-16T20:06:38.878Z,94.58
2022-11-16T20:09:09.195Z,94.63
2022-11-16T20:11:37.952Z,94.81
2022-11-16T20:14:07.153Z,94.23
2022-11-16T20:16:39.014Z,93.93
2022-11-16T20:19:07.077Z,94.00
2022-11-16T20:21:42.120Z,94.45
2022-11-16T20:24:12.299Z,94.24
2022-11-16T20:26:44.113Z,94.18
2022-11-16T20:29:13.664Z,94.23
2022-11-16T20:31:42.985Z,94.10
2022-11-16T20:34:14.003Z,95.14
2022-11-16T20:36:46.542Z,94.17
2022-11-16T20:39:15.145Z,94.22
2022-11-16T20:41:42.877Z,93.56
2022-11-16T20:44:16.662Z,94.51
2022-11-16T20:46:44.966Z,94.10
2022-11-16T20:49:14.821Z,94.41
2022-11-16T20:51:46.151Z,93.86
2022-11-16T20:54:12.594Z,94.24
2022-11-16T20:56:42.144Z,93.78
2022-11-16T20:59:08.792Z,94.09
2022-11-16T21:01:35.318Z,93.79
2022-11-16T21:04:03.912Z,94.21
2022-11-16T21:06:31.571Z,94.52
2022-11-16T21:08:58.249Z,94.62
2022-11-16T21:11:30.472Z,93.67
2022-11-16T21:14:15.625Z,94.52
2022-11-16T21:16:42.677Z,94.35
2022-11-16T21:19:10.289Z,93.59
2022-11-16T21:21:38.467Z,93.80
2022-11-16T21:24:05.210Z,94.02
2022-11-16T21:26:33.170Z,93.70
2022-11-16T21:29:01.129Z,94.57
2022-11-16T21:31:30.476Z,94.63
2022-11-16T21:33:57.539Z,94.62
2022-11-16T21:36:29.707Z,94.42
2022-11-16T21:38:57.935Z,93.90
2022-11-16T21:41:25.895Z,93.94
2022-11-16T21:43:52.557Z,94.15
2022-11-16T21:46:21.357Z,94.14
2022-11-16T21:48:48.304Z,93.59
2022-11-16T21:51:17.711Z,94.59
2022-11-16T21:53:48.126Z,94.46
2022-11-16T21:59:19.666Z,94.28
2022-11-16T22:02:01.518Z,94.35
2022-11-16T22:04:47.765Z,94.66
2022-11-16T22:07:36.961Z,94.28
2022-11-16T22:10:10.345Z,94.88
2022-11-16T22:12:43.622Z,94.14
2022-11-16T22:15:10.743Z,95.14
2022-11-16T22:17:43.592Z,95.02
2022-11-16T22:20:14.218Z,95.00
2022-11-16T22:22:43.469Z,94.46
2022-11-16T22:25:14.212Z,94.78
2022-11-16T22:27:58.722Z,95.46
2022-11-16T22:30:28.819Z,95.16
2022-11-16T22:32:56.264Z,95.36
2022-11-16T22:35:22.810Z,95.03
2022-11-16T22:37:55.194Z,95.34
2022-11-16T22:40:22.537Z,95.09
2022-11-16T22:42:50.001Z,95.05
2022-11-16T22:45:18.701Z,94.93
2022-11-16T22:47:49.618Z,95.63
2022-11-16T22:50:25.284Z,95.78
2022-11-16T22:52:51.989Z,95.63
2022-11-16T22:55:18.648Z,96.50
2022-11-16T22:57:45.773Z,96.12
2022-11-16T23:00:13.670Z,96.74
2022-11-16T23:02:40.277Z,97.38
2022-11-16T23:05:07.132Z,97.66
2022-11-16T23:07:33.774Z,97.71
2022-11-16T23:10:00.410Z,98.23
2022-11-16T23:12:45.533Z,98.40
2022-11-16T23:15:31.831Z,98.38
2022-11-16T23:17:58.379Z,99.10
2022-11-16T23:20:43.655Z,99.11
2022-11-16T23:23:36.929Z,98.98
2022-11-16T23:26:28.023Z,99.37
2022-11-16T23:28:54.844Z,99.80
2022-11-16T23:31:21.323Z,100.00
2022-11-16T23:33:47.871Z,100.00
2022-11-16T23:36:15.328Z,100.00
2022-11-16T23:38:42.170Z,100.00
2022-11-16T23:41:27.320Z,100.00
2022-11-16T23:43:59.455Z,100.00
2022-11-16T23:46:28.510Z,100.00
2022-11-16T23:48:55.251Z,100.00
2022-11-16T23:51:23.499Z,100.00
2022-11-16T23:53:51.808Z,100.00
2022-11-16T23:56:19.591Z,100.00
2022-11-16T23:58:46.922Z,100.00
